sensor_id;sensor_type;location;lat;lon;timestamp;P1;durP1;ratioP1;P2;durP2;ratioP2
34035;SDS011;63481;52.588;22.472;2022-12-20T00:00:19;38.40;;;18.60;;
34035;SDS011;63481;52.588;22.472;2022-12-20T00:01:17;36.12;;;18.36;;
34035;SDS011;63481;52.588;22.472;2022-12-20T00:02:10;35.48;;;18.50;;
34035;SDS011;63481;52.588;22.472;2022-12-20T00:03:03;31.80;;;17.16;;
34035;SDS011;63481;52.588;22.472;2022-12-20T00:04:44;36.17;;;17.90;;
34035;SDS011;63481;52.588;22.472;2022-12-20T00:07:15;32.25;;;17.20;;
34035;SDS011;63481;52.588;22.472;2022-12-20T00:08:05;35.65;;;17.85;;
34035;SDS011;63481;52.588;22.472;2022-12-20T00:08:57;36.78;;;18.92;;
34035;SDS011;63481;52.588;22.472;2022-12-20T00:09:49;35.06;;;18.66;;
34035;SDS011;63481;52.588;22.472;2022-12-20T00:10:40;35.70;;;18.23;;
34035;SDS011;63481;52.588;22.472;2022-12-20T00:11:32;34.18;;;17.60;;
34035;SDS011;63481;52.588;22.472;2022-12-20T00:12:22;37.50;;;18.70;;
34035;SDS011;63481;52.588;22.472;2022-12-20T00:13:13;35.82;;;19.38;;
34035;SDS011;63481;52.588;22.472;2022-12-20T00:14:03;33.50;;;17.15;;
34035;SDS011;63481;52.588;22.472;2022-12-20T00:14:53;33.70;;;18.10;;
34035;SDS011;63481;52.588;22.472;2022-12-20T00:15:43;35.73;;;19.73;;
34035;SDS011;63481;52.588;22.472;2022-12-20T00:16:34;36.33;;;18.82;;
34035;SDS011;63481;52.588;22.472;2022-12-20T00:17:24;34.84;;;19.16;;
34035;SDS011;63481;52.588;22.472;2022-12-20T00:18:15;35.08;;;19.20;;
34035;SDS011;63481;52.588;22.472;2022-12-20T00:19:05;36.40;;;18.50;;
34035;SDS011;63481;52.588;22.472;2022-12-20T00:19:57;34.06;;;18.50;;
34035;SDS011;63481;52.588;22.472;2022-12-20T00:20:48;35.80;;;18.45;;
34035;SDS011;63481;52.588;22.472;2022-12-20T00:21:40;33.78;;;18.20;;
34035;SDS011;63481;52.588;22.472;2022-12-20T00:22:30;34.60;;;18.90;;
34035;SDS011;63481;52.588;22.472;2022-12-20T00:23:23;36.55;;;19.32;;
34035;SDS011;63481;52.588;22.472;2022-12-20T00:24:12;36.04;;;17.94;;
34035;SDS011;63481;52.588;22.472;2022-12-20T00:25:06;37.00;;;20.18;;
34035;SDS011;63481;52.588;22.472;2022-12-20T00:26:03;33.62;;;18.44;;
34035;SDS011;63481;52.588;22.472;2022-12-20T00:27:02;32.48;;;17.74;;
34035;SDS011;63481;52.588;22.472;2022-12-20T00:27:52;35.95;;;17.55;;
34035;SDS011;63481;52.588;22.472;2022-12-20T00:28:43;36.65;;;19.00;;
34035;SDS011;63481;52.588;22.472;2022-12-20T00:30:23;34.45;;;19.70;;
34035;SDS011;63481;52.588;22.472;2022-12-20T00:31:14;37.63;;;18.15;;
34035;SDS011;63481;52.588;22.472;2022-12-20T00:32:09;32.02;;;17.02;;
34035;SDS011;63481;52.588;22.472;2022-12-20T00:32:59;36.38;;;19.07;;
34035;SDS011;63481;52.588;22.472;2022-12-20T00:33:49;33.38;;;19.12;;
34035;SDS011;63481;52.588;22.472;2022-12-20T00:34:41;35.48;;;19.95;;
34035;SDS011;63481;52.588;22.472;2022-12-20T00:35:32;36.72;;;18.86;;
34035;SDS011;63481;52.588;22.472;2022-12-20T00:36:24;34.48;;;18.82;;
34035;SDS011;63481;52.588;22.472;2022-12-20T00:37:15;36.03;;;18.67;;
34035;SDS011;63481;52.588;22.472;2022-12-20T00:38:05;35.43;;;19.48;;
34035;SDS011;63481;52.588;22.472;2022-12-20T00:38:56;36.38;;;20.05;;
34035;SDS011;63481;52.588;22.472;2022-12-20T00:39:47;32.88;;;19.08;;
34035;SDS011;63481;52.588;22.472;2022-12-20T00:40:38;35.75;;;19.37;;
34035;SDS011;63481;52.588;22.472;2022-12-20T00:42:19;36.68;;;17.72;;
34035;SDS011;63481;52.588;22.472;2022-12-20T00:43:09;34.33;;;18.23;;
34035;SDS011;63481;52.588;22.472;2022-12-20T00:44:01;32.44;;;17.68;;
34035;SDS011;63481;52.588;22.472;2022-12-20T00:44:52;32.94;;;18.92;;
34035;SDS011;63481;52.588;22.472;2022-12-20T00:45:44;34.58;;;18.84;;
34035;SDS011;63481;52.588;22.472;2022-12-20T00:46:34;33.13;;;19.12;;
34035;SDS011;63481;52.588;22.472;2022-12-20T00:47:24;31.12;;;18.23;;
34035;SDS011;63481;52.588;22.472;2022-12-20T00:48:14;30.68;;;17.23;;
34035;SDS011;63481;52.588;22.472;2022-12-20T00:49:05;35.03;;;18.40;;
34035;SDS011;63481;52.588;22.472;2022-12-20T00:49:55;33.24;;;18.44;;
34035;SDS011;63481;52.588;22.472;2022-12-20T00:50:45;37.90;;;19.25;;
34035;SDS011;63481;52.588;22.472;2022-12-20T00:52:25;33.96;;;18.10;;
34035;SDS011;63481;52.588;22.472;2022-12-20T00:53:17;36.13;;;18.40;;
34035;SDS011;63481;52.588;22.472;2022-12-20T00:54:07;35.52;;;18.23;;
34035;SDS011;63481;52.588;22.472;2022-12-20T00:54:57;37.25;;;18.35;;
34035;SDS011;63481;52.588;22.472;2022-12-20T00:56:38;34.80;;;17.50;;
34035;SDS011;63481;52.588;22.472;2022-12-20T00:57:28;33.70;;;18.87;;
34035;SDS011;63481;52.588;22.472;2022-12-20T00:58:19;35.88;;;19.02;;
34035;SDS011;63481;52.588;22.472;2022-12-20T00:59:08;36.08;;;19.23;;
34035;SDS011;63481;52.588;22.472;2022-12-20T00:59:59;35.88;;;19.25;;
34035;SDS011;63481;52.588;22.472;2022-12-20T01:00:49;33.30;;;18.95;;
34035;SDS011;63481;52.588;22.472;2022-12-20T01:01:39;37.03;;;19.25;;
34035;SDS011;63481;52.588;22.472;2022-12-20T01:02:29;33.80;;;18.90;;
34035;SDS011;63481;52.588;22.472;2022-12-20T01:03:20;37.38;;;19.02;;
34035;SDS011;63481;52.588;22.472;2022-12-20T01:04:10;34.95;;;19.07;;
34035;SDS011;63481;52.588;22.472;2022-12-20T01:05:00;34.05;;;19.62;;
34035;SDS011;63481;52.588;22.472;2022-12-20T01:05:51;39.63;;;20.68;;
34035;SDS011;63481;52.588;22.472;2022-12-20T01:06:43;34.60;;;18.50;;
34035;SDS011;63481;52.588;22.472;2022-12-20T01:07:34;36.60;;;20.65;;
34035;SDS011;63481;52.588;22.472;2022-12-20T01:08:24;35.17;;;19.55;;
34035;SDS011;63481;52.588;22.472;2022-12-20T01:09:18;35.25;;;19.73;;
34035;SDS011;63481;52.588;22.472;2022-12-20T01:10:08;34.80;;;19.57;;
34035;SDS011;63481;52.588;22.472;2022-12-20T01:12:03;36.56;;;20.94;;
34035;SDS011;63481;52.588;22.472;2022-12-20T01:12:53;36.93;;;20.60;;
34035;SDS011;63481;52.588;22.472;2022-12-20T01:13:44;37.20;;;19.55;;
34035;SDS011;63481;52.588;22.472;2022-12-20T01:14:36;36.65;;;19.67;;
34035;SDS011;63481;52.588;22.472;2022-12-20T01:15:26;37.60;;;20.00;;
34035;SDS011;63481;52.588;22.472;2022-12-20T01:16:22;36.93;;;19.67;;
34035;SDS011;63481;52.588;22.472;2022-12-20T01:17:17;36.28;;;20.85;;
34035;SDS011;63481;52.588;22.472;2022-12-20T01:18:07;38.30;;;20.77;;
34035;SDS011;63481;52.588;22.472;2022-12-20T01:18:57;42.20;;;19.90;;
34035;SDS011;63481;52.588;22.472;2022-12-20T01:20:40;34.67;;;18.45;;
34035;SDS011;63481;52.588;22.472;2022-12-20T01:21:29;36.50;;;19.23;;
34035;SDS011;63481;52.588;22.472;2022-12-20T01:22:22;35.83;;;19.87;;
34035;SDS011;63481;52.588;22.472;2022-12-20T01:23:12;37.98;;;20.82;;
34035;SDS011;63481;52.588;22.472;2022-12-20T01:24:02;36.25;;;20.00;;
34035;SDS011;63481;52.588;22.472;2022-12-20T01:24:54;36.90;;;19.80;;
34035;SDS011;63481;52.588;22.472;2022-12-20T01:25:44;34.92;;;19.48;;
34035;SDS011;63481;52.588;22.472;2022-12-20T01:26:35;39.95;;;21.87;;
34035;SDS011;63481;52.588;22.472;2022-12-20T01:27:25;36.08;;;20.35;;
34035;SDS011;63481;52.588;22.472;2022-12-20T01:28:17;34.77;;;20.00;;
34035;SDS011;63481;52.588;22.472;2022-12-20T01:29:07;37.30;;;20.05;;
34035;SDS011;63481;52.588;22.472;2022-12-20T01:29:57;37.98;;;20.82;;
34035;SDS011;63481;52.588;22.472;2022-12-20T01:30:48;39.98;;;20.65;;
34035;SDS011;63481;52.588;22.472;2022-12-20T01:31:38;38.42;;;20.92;;
34035;SDS011;63481;52.588;22.472;2022-12-20T01:32:28;34.27;;;19.02;;
34035;SDS011;63481;52.588;22.472;2022-12-20T01:34:09;35.98;;;19.55;;
34035;SDS011;63481;52.588;22.472;2022-12-20T01:34:59;35.23;;;19.60;;
34035;SDS011;63481;52.588;22.472;2022-12-20T01:36:01;35.50;;;19.60;;
34035;SDS011;63481;52.588;22.472;2022-12-20T01:36:45;35.97;;;19.63;;
34035;SDS011;63481;52.588;22.472;2022-12-20T01:37:35;36.30;;;19.67;;
34035;SDS011;63481;52.588;22.472;2022-12-20T01:38:25;37.05;;;19.35;;
34035;SDS011;63481;52.588;22.472;2022-12-20T01:39:16;34.50;;;18.33;;
34035;SDS011;63481;52.588;22.472;2022-12-20T01:40:07;37.70;;;20.37;;
34035;SDS011;63481;52.588;22.472;2022-12-20T01:40:58;34.37;;;19.20;;
34035;SDS011;63481;52.588;22.472;2022-12-20T01:42:38;36.53;;;19.17;;
34035;SDS011;63481;52.588;22.472;2022-12-20T01:43:45;40.75;;;20.30;;
34035;SDS011;63481;52.588;22.472;2022-12-20T01:44:58;37.10;;;19.80;;
34035;SDS011;63481;52.588;22.472;2022-12-20T01:45:33;40.40;;;20.10;;
34035;SDS011;63481;52.588;22.472;2022-12-20T01:46:25;38.60;;;20.88;;
34035;SDS011;63481;52.588;22.472;2022-12-20T01:47:16;36.33;;;20.43;;
34035;SDS011;63481;52.588;22.472;2022-12-20T01:48:09;35.98;;;19.05;;
34035;SDS011;63481;52.588;22.472;2022-12-20T01:49:05;40.47;;;19.83;;
34035;SDS011;63481;52.588;22.472;2022-12-20T01:49:55;36.93;;;20.20;;
34035;SDS011;63481;52.588;22.472;2022-12-20T01:50:48;34.83;;;19.63;;
34035;SDS011;63481;52.588;22.472;2022-12-20T01:51:42;37.27;;;19.63;;
34035;SDS011;63481;52.588;22.472;2022-12-20T01:52:38;35.43;;;19.27;;
34035;SDS011;63481;52.588;22.472;2022-12-20T01:53:29;32.77;;;19.30;;
34035;SDS011;63481;52.588;22.472;2022-12-20T01:54:22;39.30;;;21.10;;
34035;SDS011;63481;52.588;22.472;2022-12-20T01:55:17;38.70;;;20.70;;
34035;SDS011;63481;52.588;22.472;2022-12-20T01:56:12;33.53;;;19.03;;
34035;SDS011;63481;52.588;22.472;2022-12-20T01:57:05;38.07;;;19.77;;
34035;SDS011;63481;52.588;22.472;2022-12-20T01:58:07;36.33;;;20.40;;
34035;SDS011;63481;52.588;22.472;2022-12-20T01:58:58;39.63;;;20.68;;
34035;SDS011;63481;52.588;22.472;2022-12-20T01:59:50;35.07;;;18.83;;
34035;SDS011;63481;52.588;22.472;2022-12-20T02:00:45;40.40;;;20.10;;
34035;SDS011;63481;52.588;22.472;2022-12-20T02:02:26;34.92;;;18.48;;
34035;SDS011;63481;52.588;22.472;2022-12-20T02:03:16;38.17;;;19.53;;
34035;SDS011;63481;52.588;22.472;2022-12-20T02:04:09;35.53;;;18.80;;
34035;SDS011;63481;52.588;22.472;2022-12-20T02:04:59;35.88;;;19.77;;
34035;SDS011;63481;52.588;22.472;2022-12-20T02:06:40;30.80;;;16.17;;
34035;SDS011;63481;52.588;22.472;2022-12-20T02:07:30;36.93;;;20.37;;
34035;SDS011;63481;52.588;22.472;2022-12-20T02:08:22;38.17;;;20.50;;
34035;SDS011;63481;52.588;22.472;2022-12-20T02:09:13;36.50;;;20.35;;
34035;SDS011;63481;52.588;22.472;2022-12-20T02:10:05;38.13;;;19.53;;
34035;SDS011;63481;52.588;22.472;2022-12-20T02:12:15;38.13;;;20.57;;
34035;SDS011;63481;52.588;22.472;2022-12-20T02:13:02;38.10;;;19.80;;
34035;SDS011;63481;52.588;22.472;2022-12-20T02:14:03;34.40;;;17.73;;
34035;SDS011;63481;52.588;22.472;2022-12-20T02:15:09;37.13;;;19.90;;
34035;SDS011;63481;52.588;22.472;2022-12-20T02:16:09;34.13;;;17.03;;
34035;SDS011;63481;52.588;22.472;2022-12-20T02:18:02;38.42;;;20.80;;
34035;SDS011;63481;52.588;22.472;2022-12-20T02:21:32;38.20;;;20.60;;
34035;SDS011;63481;52.588;22.472;2022-12-20T02:25:45;39.83;;;20.75;;
34035;SDS011;63481;52.588;22.472;2022-12-20T02:26:49;38.27;;;20.50;;
34035;SDS011;63481;52.588;22.472;2022-12-20T02:28:59;41.60;;;21.70;;
34035;SDS011;63481;52.588;22.472;2022-12-20T02:30:53;37.97;;;20.67;;
34035;SDS011;63481;52.588;22.472;2022-12-20T02:32:51;39.67;;;21.60;;
34035;SDS011;63481;52.588;22.472;2022-12-20T02:33:55;37.80;;;21.13;;
34035;SDS011;63481;52.588;22.472;2022-12-20T02:34:47;39.53;;;19.70;;
34035;SDS011;63481;52.588;22.472;2022-12-20T02:35:39;39.77;;;21.37;;
34035;SDS011;63481;52.588;22.472;2022-12-20T02:36:32;43.57;;;23.03;;
34035;SDS011;63481;52.588;22.472;2022-12-20T02:37:22;38.25;;;19.95;;
34035;SDS011;63481;52.588;22.472;2022-12-20T02:38:27;41.25;;;22.30;;
34035;SDS011;63481;52.588;22.472;2022-12-20T02:39:15;40.33;;;22.80;;
34035;SDS011;63481;52.588;22.472;2022-12-20T02:40:07;43.27;;;23.07;;
34035;SDS011;63481;52.588;22.472;2022-12-20T02:41:02;42.67;;;23.13;;
34035;SDS011;63481;52.588;22.472;2022-12-20T02:42:12;38.83;;;21.87;;
34035;SDS011;63481;52.588;22.472;2022-12-20T02:43:01;40.20;;;22.17;;
34035;SDS011;63481;52.588;22.472;2022-12-20T02:44:01;43.73;;;23.17;;
34035;SDS011;63481;52.588;22.472;2022-12-20T02:45:10;39.20;;;21.57;;
34035;SDS011;63481;52.588;22.472;2022-12-20T02:46:04;41.93;;;19.50;;
34035;SDS011;63481;52.588;22.472;2022-12-20T02:46:56;43.73;;;23.40;;
34035;SDS011;63481;52.588;22.472;2022-12-20T02:47:57;40.77;;;22.10;;
34035;SDS011;63481;52.588;22.472;2022-12-20T02:48:49;41.93;;;22.57;;
34035;SDS011;63481;52.588;22.472;2022-12-20T02:49:42;41.87;;;21.80;;
34035;SDS011;63481;52.588;22.472;2022-12-20T02:50:39;42.50;;;23.30;;
34035;SDS011;63481;52.588;22.472;2022-12-20T02:51:31;42.37;;;24.23;;
34035;SDS011;63481;52.588;22.472;2022-12-20T02:52:22;38.53;;;20.83;;
34035;SDS011;63481;52.588;22.472;2022-12-20T02:53:15;41.43;;;22.33;;
34035;SDS011;63481;52.588;22.472;2022-12-20T02:54:06;43.57;;;24.13;;
34035;SDS011;63481;52.588;22.472;2022-12-20T02:54:56;40.55;;;22.27;;
34035;SDS011;63481;52.588;22.472;2022-12-20T02:56:44;45.23;;;24.30;;
34035;SDS011;63481;52.588;22.472;2022-12-20T02:57:43;43.83;;;24.20;;
34035;SDS011;63481;52.588;22.472;2022-12-20T02:58:48;46.20;;;24.87;;
34035;SDS011;63481;52.588;22.472;2022-12-20T02:59:42;40.03;;;22.50;;
34035;SDS011;63481;52.588;22.472;2022-12-20T03:00:36;45.90;;;24.73;;
34035;SDS011;63481;52.588;22.472;2022-12-20T03:01:29;41.57;;;23.10;;
34035;SDS011;63481;52.588;22.472;2022-12-20T03:02:22;44.67;;;24.13;;
34035;SDS011;63481;52.588;22.472;2022-12-20T03:03:13;43.17;;;22.53;;
34035;SDS011;63481;52.588;22.472;2022-12-20T03:04:16;41.50;;;22.75;;
34035;SDS011;63481;52.588;22.472;2022-12-20T03:05:08;40.87;;;20.90;;
34035;SDS011;63481;52.588;22.472;2022-12-20T03:06:55;37.10;;;19.42;;
34035;SDS011;63481;52.588;22.472;2022-12-20T03:07:49;38.37;;;20.63;;
34035;SDS011;63481;52.588;22.472;2022-12-20T03:08:41;39.93;;;21.97;;
34035;SDS011;63481;52.588;22.472;2022-12-20T03:09:33;43.33;;;23.53;;
34035;SDS011;63481;52.588;22.472;2022-12-20T03:10:26;44.43;;;24.37;;
34035;SDS011;63481;52.588;22.472;2022-12-20T03:11:16;44.37;;;23.10;;
34035;SDS011;63481;52.588;22.472;2022-12-20T03:12:09;41.27;;;23.60;;
34035;SDS011;63481;52.588;22.472;2022-12-20T03:13:04;41.67;;;22.90;;
34035;SDS011;63481;52.588;22.472;2022-12-20T03:13:54;41.60;;;22.10;;
34035;SDS011;63481;52.588;22.472;2022-12-20T03:15:35;40.55;;;22.02;;
34035;SDS011;63481;52.588;22.472;2022-12-20T03:16:26;43.03;;;22.80;;
34035;SDS011;63481;52.588;22.472;2022-12-20T03:17:16;42.23;;;21.50;;
34035;SDS011;63481;52.588;22.472;2022-12-20T03:18:06;40.28;;;22.52;;
34035;SDS011;63481;52.588;22.472;2022-12-20T03:18:56;40.95;;;23.45;;
34035;SDS011;63481;52.588;22.472;2022-12-20T03:19:47;40.73;;;23.05;;
34035;SDS011;63481;52.588;22.472;2022-12-20T03:20:37;43.98;;;25.08;;
34035;SDS011;63481;52.588;22.472;2022-12-20T03:21:28;41.47;;;22.33;;
34035;SDS011;63481;52.588;22.472;2022-12-20T03:22:18;45.15;;;23.45;;
34035;SDS011;63481;52.588;22.472;2022-12-20T03:23:08;43.65;;;23.95;;
34035;SDS011;63481;52.588;22.472;2022-12-20T03:23:59;41.08;;;23.70;;
34035;SDS011;63481;52.588;22.472;2022-12-20T03:24:53;42.20;;;24.37;;
34035;SDS011;63481;52.588;22.472;2022-12-20T03:25:43;41.53;;;22.03;;
34035;SDS011;63481;52.588;22.472;2022-12-20T03:26:35;41.40;;;24.03;;
34035;SDS011;63481;52.588;22.472;2022-12-20T03:27:25;43.87;;;25.23;;
34035;SDS011;63481;52.588;22.472;2022-12-20T03:28:17;42.03;;;23.07;;
34035;SDS011;63481;52.588;22.472;2022-12-20T03:29:07;36.80;;;20.43;;
34035;SDS011;63481;52.588;22.472;2022-12-20T03:29:58;36.13;;;20.47;;
34035;SDS011;63481;52.588;22.472;2022-12-20T03:30:50;42.50;;;24.00;;
34035;SDS011;63481;52.588;22.472;2022-12-20T03:31:40;44.53;;;23.30;;
34035;SDS011;63481;52.588;22.472;2022-12-20T03:32:31;41.75;;;22.80;;
34035;SDS011;63481;52.588;22.472;2022-12-20T03:33:21;44.65;;;23.42;;
34035;SDS011;63481;52.588;22.472;2022-12-20T03:34:11;42.23;;;23.30;;
34035;SDS011;63481;52.588;22.472;2022-12-20T03:35:02;41.93;;;23.10;;
34035;SDS011;63481;52.588;22.472;2022-12-20T03:35:54;40.93;;;22.00;;
34035;SDS011;63481;52.588;22.472;2022-12-20T03:36:45;41.35;;;22.67;;
34035;SDS011;63481;52.588;22.472;2022-12-20T03:37:35;46.75;;;25.50;;
34035;SDS011;63481;52.588;22.472;2022-12-20T03:38:28;42.20;;;24.17;;
34035;SDS011;63481;52.588;22.472;2022-12-20T03:39:18;37.48;;;22.02;;
34035;SDS011;63481;52.588;22.472;2022-12-20T03:40:08;38.75;;;21.68;;
34035;SDS011;63481;52.588;22.472;2022-12-20T03:41:00;42.47;;;22.33;;
34035;SDS011;63481;52.588;22.472;2022-12-20T03:41:50;41.37;;;22.42;;
34035;SDS011;63481;52.588;22.472;2022-12-20T03:43:30;42.38;;;22.07;;
34035;SDS011;63481;52.588;22.472;2022-12-20T03:44:21;37.93;;;21.17;;
34035;SDS011;63481;52.588;22.472;2022-12-20T03:45:11;39.50;;;21.23;;
34035;SDS011;63481;52.588;22.472;2022-12-20T03:46:57;37.13;;;20.00;;
34035;SDS011;63481;52.588;22.472;2022-12-20T03:47:47;40.77;;;22.20;;
34035;SDS011;63481;52.588;22.472;2022-12-20T03:48:37;41.53;;;22.45;;
34035;SDS011;63481;52.588;22.472;2022-12-20T03:49:28;40.75;;;22.42;;
34035;SDS011;63481;52.588;22.472;2022-12-20T03:50:18;39.42;;;22.75;;
34035;SDS011;63481;52.588;22.472;2022-12-20T03:51:08;44.43;;;24.70;;
34035;SDS011;63481;52.588;22.472;2022-12-20T03:51:58;39.45;;;23.18;;
34035;SDS011;63481;52.588;22.472;2022-12-20T03:52:49;41.03;;;23.40;;
34035;SDS011;63481;52.588;22.472;2022-12-20T03:53:39;41.40;;;23.35;;
34035;SDS011;63481;52.588;22.472;2022-12-20T03:54:30;43.43;;;24.10;;
34035;SDS011;63481;52.588;22.472;2022-12-20T03:55:31;38.07;;;22.60;;
34035;SDS011;63481;52.588;22.472;2022-12-20T03:56:22;43.33;;;24.67;;
34035;SDS011;63481;52.588;22.472;2022-12-20T03:57:13;41.33;;;23.63;;
34035;SDS011;63481;52.588;22.472;2022-12-20T03:58:55;41.23;;;20.60;;
34035;SDS011;63481;52.588;22.472;2022-12-20T03:59:45;39.25;;;21.70;;
34035;SDS011;63481;52.588;22.472;2022-12-20T04:00:37;42.20;;;24.03;;
34035;SDS011;63481;52.588;22.472;2022-12-20T04:01:38;43.87;;;23.03;;
34035;SDS011;63481;52.588;22.472;2022-12-20T04:02:28;40.40;;;22.70;;
34035;SDS011;63481;52.588;22.472;2022-12-20T04:04:09;39.83;;;22.73;;
34035;SDS011;63481;52.588;22.472;2022-12-20T04:05:02;39.30;;;21.70;;
34035;SDS011;63481;52.588;22.472;2022-12-20T04:05:52;41.02;;;22.93;;
34035;SDS011;63481;52.588;22.472;2022-12-20T04:06:42;39.42;;;23.25;;
34035;SDS011;63481;52.588;22.472;2022-12-20T04:07:32;40.15;;;21.87;;
34035;SDS011;63481;52.588;22.472;2022-12-20T04:08:25;39.70;;;23.30;;
34035;SDS011;63481;52.588;22.472;2022-12-20T04:09:17;36.73;;;21.50;;
34035;SDS011;63481;52.588;22.472;2022-12-20T04:10:09;39.47;;;22.57;;
34035;SDS011;63481;52.588;22.472;2022-12-20T04:10:59;37.67;;;22.13;;
34035;SDS011;63481;52.588;22.472;2022-12-20T04:12:06;38.10;;;21.50;;
34035;SDS011;63481;52.588;22.472;2022-12-20T04:12:58;42.40;;;24.37;;
34035;SDS011;63481;52.588;22.472;2022-12-20T04:13:52;39.97;;;23.87;;
34035;SDS011;63481;52.588;22.472;2022-12-20T04:14:43;40.80;;;23.07;;
34035;SDS011;63481;52.588;22.472;2022-12-20T04:15:33;36.57;;;21.73;;
34035;SDS011;63481;52.588;22.472;2022-12-20T04:16:24;39.88;;;22.62;;
34035;SDS011;63481;52.588;22.472;2022-12-20T04:17:16;33.80;;;21.03;;
34035;SDS011;63481;52.588;22.472;2022-12-20T04:18:07;36.15;;;20.90;;
34035;SDS011;63481;52.588;22.472;2022-12-20T04:19:00;39.93;;;21.63;;
34035;SDS011;63481;52.588;22.472;2022-12-20T04:19:51;38.77;;;22.33;;
34035;SDS011;63481;52.588;22.472;2022-12-20T04:20:41;40.80;;;22.50;;
34035;SDS011;63481;52.588;22.472;2022-12-20T04:21:34;35.60;;;21.73;;
34035;SDS011;63481;52.588;22.472;2022-12-20T04:22:25;37.10;;;21.80;;
34035;SDS011;63481;52.588;22.472;2022-12-20T04:23:17;35.17;;;21.67;;
34035;SDS011;63481;52.588;22.472;2022-12-20T04:24:08;33.05;;;20.10;;
34035;SDS011;63481;52.588;22.472;2022-12-20T04:25:06;34.97;;;21.53;;
34035;SDS011;63481;52.588;22.472;2022-12-20T04:26:02;39.63;;;21.50;;
34035;SDS011;63481;52.588;22.472;2022-12-20T04:26:55;36.37;;;22.53;;
34035;SDS011;63481;52.588;22.472;2022-12-20T04:27:45;34.48;;;21.15;;
34035;SDS011;63481;52.588;22.472;2022-12-20T04:28:35;37.28;;;21.23;;
34035;SDS011;63481;52.588;22.472;2022-12-20T04:30:15;36.40;;;20.72;;
34035;SDS011;63481;52.588;22.472;2022-12-20T04:31:57;35.77;;;20.47;;
34035;SDS011;63481;52.588;22.472;2022-12-20T04:32:47;36.25;;;18.48;;
34035;SDS011;63481;52.588;22.472;2022-12-20T04:33:37;35.63;;;22.15;;
34035;SDS011;63481;52.588;22.472;2022-12-20T04:34:28;40.27;;;22.17;;
34035;SDS011;63481;52.588;22.472;2022-12-20T04:35:22;35.77;;;20.80;;
34035;SDS011;63481;52.588;22.472;2022-12-20T04:37:03;34.73;;;18.57;;
34035;SDS011;63481;52.588;22.472;2022-12-20T04:37:55;41.10;;;20.37;;
34035;SDS011;63481;52.588;22.472;2022-12-20T04:38:48;39.30;;;21.67;;
34035;SDS011;63481;52.588;22.472;2022-12-20T04:39:38;39.20;;;22.82;;
34035;SDS011;63481;52.588;22.472;2022-12-20T04:40:33;39.90;;;22.50;;
34035;SDS011;63481;52.588;22.472;2022-12-20T04:41:25;34.00;;;20.93;;
34035;SDS011;63481;52.588;22.472;2022-12-20T04:42:21;36.03;;;20.87;;
34035;SDS011;63481;52.588;22.472;2022-12-20T04:43:12;35.33;;;21.43;;
34035;SDS011;63481;52.588;22.472;2022-12-20T04:44:04;37.23;;;22.10;;
34035;SDS011;63481;52.588;22.472;2022-12-20T04:44:56;36.80;;;21.33;;
34035;SDS011;63481;52.588;22.472;2022-12-20T04:45:48;38.30;;;22.43;;
34035;SDS011;63481;52.588;22.472;2022-12-20T04:46:42;35.37;;;21.93;;
34035;SDS011;63481;52.588;22.472;2022-12-20T04:47:34;31.70;;;17.03;;
34035;SDS011;63481;52.588;22.472;2022-12-20T04:48:25;37.90;;;21.97;;
34035;SDS011;63481;52.588;22.472;2022-12-20T04:49:17;35.57;;;21.10;;
34035;SDS011;63481;52.588;22.472;2022-12-20T04:50:07;39.65;;;22.05;;
34035;SDS011;63481;52.588;22.472;2022-12-20T04:51:01;36.37;;;20.40;;
34035;SDS011;63481;52.588;22.472;2022-12-20T04:51:49;37.13;;;22.27;;
34035;SDS011;63481;52.588;22.472;2022-12-20T04:52:40;35.17;;;19.35;;
34035;SDS011;63481;52.588;22.472;2022-12-20T04:53:48;33.17;;;18.43;;
34035;SDS011;63481;52.588;22.472;2022-12-20T04:54:47;33.73;;;20.17;;
34035;SDS011;63481;52.588;22.472;2022-12-20T04:55:39;33.77;;;20.43;;
34035;SDS011;63481;52.588;22.472;2022-12-20T04:56:30;34.73;;;20.23;;
34035;SDS011;63481;52.588;22.472;2022-12-20T04:57:23;33.47;;;19.57;;
34035;SDS011;63481;52.588;22.472;2022-12-20T04:59:03;33.35;;;19.27;;
34035;SDS011;63481;52.588;22.472;2022-12-20T04:59:53;35.43;;;19.37;;
34035;SDS011;63481;52.588;22.472;2022-12-20T05:00:43;39.27;;;21.40;;
34035;SDS011;63481;52.588;22.472;2022-12-20T05:01:35;37.90;;;20.17;;
34035;SDS011;63481;52.588;22.472;2022-12-20T05:02:26;37.55;;;20.35;;
34035;SDS011;63481;52.588;22.472;2022-12-20T05:03:18;38.40;;;21.60;;
34035;SDS011;63481;52.588;22.472;2022-12-20T05:04:09;35.57;;;20.50;;
34035;SDS011;63481;52.588;22.472;2022-12-20T05:05:00;35.90;;;21.30;;
34035;SDS011;63481;52.588;22.472;2022-12-20T05:05:51;37.33;;;22.60;;
34035;SDS011;63481;52.588;22.472;2022-12-20T05:06:42;36.03;;;20.67;;
34035;SDS011;63481;52.588;22.472;2022-12-20T05:07:33;37.33;;;21.47;;
34035;SDS011;63481;52.588;22.472;2022-12-20T05:08:23;36.38;;;21.30;;
34035;SDS011;63481;52.588;22.472;2022-12-20T05:09:14;36.40;;;21.27;;
34035;SDS011;63481;52.588;22.472;2022-12-20T05:10:04;37.98;;;21.52;;
34035;SDS011;63481;52.588;22.472;2022-12-20T05:10:55;39.53;;;22.33;;
34035;SDS011;63481;52.588;22.472;2022-12-20T05:11:45;36.00;;;21.25;;
34035;SDS011;63481;52.588;22.472;2022-12-20T05:12:35;37.25;;;21.70;;
34035;SDS011;63481;52.588;22.472;2022-12-20T05:13:25;33.38;;;19.75;;
34035;SDS011;63481;52.588;22.472;2022-12-20T05:15:06;36.80;;;20.50;;
34035;SDS011;63481;52.588;22.472;2022-12-20T05:15:57;41.37;;;20.53;;
34035;SDS011;63481;52.588;22.472;2022-12-20T05:16:49;36.73;;;20.57;;
34035;SDS011;63481;52.588;22.472;2022-12-20T05:17:41;37.60;;;21.87;;
34035;SDS011;63481;52.588;22.472;2022-12-20T05:18:35;35.80;;;21.40;;
34035;SDS011;63481;52.588;22.472;2022-12-20T05:19:27;37.50;;;19.73;;
34035;SDS011;63481;52.588;22.472;2022-12-20T05:20:17;34.75;;;20.17;;
34035;SDS011;63481;52.588;22.472;2022-12-20T05:21:07;38.53;;;22.45;;
34035;SDS011;63481;52.588;22.472;2022-12-20T05:22:15;36.23;;;20.77;;
34035;SDS011;63481;52.588;22.472;2022-12-20T05:23:31;35.80;;;20.37;;
34035;SDS011;63481;52.588;22.472;2022-12-20T05:24:42;34.33;;;19.80;;
34035;SDS011;63481;52.588;22.472;2022-12-20T05:25:52;37.85;;;22.67;;
34035;SDS011;63481;52.588;22.472;2022-12-20T05:27:01;38.03;;;21.33;;
34035;SDS011;63481;52.588;22.472;2022-12-20T05:27:51;36.30;;;21.03;;
34035;SDS011;63481;52.588;22.472;2022-12-20T05:30:23;37.60;;;21.35;;
34035;SDS011;63481;52.588;22.472;2022-12-20T05:31:13;38.20;;;21.63;;
34035;SDS011;63481;52.588;22.472;2022-12-20T05:32:04;33.42;;;19.52;;
34035;SDS011;63481;52.588;22.472;2022-12-20T05:32:55;35.50;;;21.57;;
34035;SDS011;63481;52.588;22.472;2022-12-20T05:33:45;38.15;;;22.20;;
34035;SDS011;63481;52.588;22.472;2022-12-20T05:34:37;38.87;;;21.43;;
34035;SDS011;63481;52.588;22.472;2022-12-20T05:35:27;40.92;;;22.60;;
34035;SDS011;63481;52.588;22.472;2022-12-20T05:36:19;38.10;;;21.87;;